CST,Max TemperatureF,Mean TemperatureF,Min TemperatureF,Max Dew PointF,MeanDew PointF,Min DewpointF,Max Humidity, Mean Humidity, Min Humidity, Max Sea Level PressureIn, Mean Sea Level PressureIn, Min Sea Level PressureIn, Max VisibilityMiles, Mean VisibilityMiles, Min VisibilityMiles, Max Wind SpeedMPH, Mean Wind SpeedMPH, Max Gust SpeedMPH,PrecipitationIn, CloudCover, Events, WindDirDegrees
2013-2-1,43,34,26,21,12,4,64,41,27,30.52,30.40,30.27,10,10,10,12,6,,0.00,0,,89
2013-2-2,62,46,30,33,28,21,80,55,30,30.27,30.23,30.18,10,10,10,9,3,,0.00,1,,321
2013-2-3,62,46,30,34,27,20,89,52,21,30.29,30.20,30.07,10,10,10,12,2,,0.00,0,,18
2013-2-4,48,46,45,46,40,26,93,75,41,30.06,29.96,29.89,10,10,7,6,3,,0.05,7,Rain,167
2013-2-5,66,55,41,47,43,35,100,84,32,30.07,30.00,29.94,10,4,0,5,2,,0.00,2,Fog,300
2013-2-6,54,45,36,49,43,34,97,84,75,30.16,30.08,30.01,10,9,7,10,3,,0.00,4,Rain-Snow,109
2013-2-7,59,55,51,55,52,45,96,88,76,30.00,29.93,29.89,10,6,2,9,2,20,0.05,8,Rain-Thunderstorm,99
2013-2-8,57,48,39,50,39,32,88,66,39,30.27,30.15,29.97,10,10,9,14,7,22,0.00,3,,43
2013-2-9,46,40,35,41,34,30,83,74,61,30.28,30.14,29.95,10,9,6,13,9,17,0.02,6,Rain,102
2013-2-10,66,56,42,57,48,33,100,80,31,30.01,29.82,29.74,10,7,1,15,8,21,0.59,6,Rain-Thunderstorm,170
2013-2-11,57,49,41,36,30,24,79,51,29,30.19,30.12,30.03,10,10,10,8,2,,0.00,0,,11
2013-2-12,44,40,35,40,37,32,93,85,71,30.14,29.95,29.85,10,8,2,18,4,25,0.33,6,Rain,55
2013-2-13,53,46,39,37,35,29,93,77,43,30.08,29.99,29.89,10,10,6,9,4,,0.00,5,Rain,301
2013-2-14,64,48,32,37,34,30,92,65,29,30.10,30.05,30.00,10,10,8,8,4,,0.00,0,Snow,273
2013-2-15,52,44,37,38,26,15,82,51,23,30.30,30.23,30.11,10,10,10,15,4,21,0.00,2,Rain,330
2013-2-16,45,36,28,22,16,10,69,46,26,30.35,30.28,30.23,10,10,10,14,3,21,0.00,2,Snow,335
2013-2-17,64,48,33,37,25,15,56,42,28,30.22,30.11,29.99,10,10,10,15,5,23,0.00,1,,170
2013-2-18,60,54,48,55,47,31,89,74,52,30.05,29.85,29.69,10,8,1,18,9,32,0.59,6,Rain-Thunderstorm,215
2013-2-19,54,44,33,28,24,17,75,52,23,30.32,30.23,30.07,10,10,10,10,4,18,0.00,0,,326
2013-2-20,39,34,30,28,25,16,87,76,41,30.33,30.23,30.10,10,8,2,14,6,43,0.31,7,Rain-Snow,93
2013-2-21,36,33,30,34,31,27,100,90,81,30.09,29.85,29.74,10,5,0,17,10,28,0.91,8,Fog-Rain-Snow-Thunderstorm,88
2013-2-22,46,40,33,34,31,27,100,80,48,30.12,30.03,29.93,10,8,0,9,4,17,0.00,3,Fog,277
2013-2-23,54,41,28,33,29,26,92,68,38,30.09,30.03,29.94,10,10,9,8,1,17,0.00,0,,90
2013-2-24,60,44,28,35,31,27,92,61,32,30.06,29.97,29.84,10,10,6,13,5,16,0.00,0,,105
2013-2-25,46,44,42,46,41,32,100,87,56,29.81,29.52,29.40,10,6,0,20,8,28,0.87,7,Fog-Rain-Thunderstorm,81
2013-2-26,44,40,37,43,35,32,93,79,66,29.89,29.61,29.42,10,10,10,16,11,26,0.01,7,Rain,269
2013-2-27,48,39,30,33,30,25,92,67,44,30.09,30.00,29.90,10,9,5,13,5,24,0.00,2,Rain,296
2013-2-28,53,43,33,29,26,22,75,54,30,30.16,30.12,30.09,10,10,10,15,7,23,0.00,0,,313